Time;durP1;ratioP1;P1;durP2;ratioP2;P2;SDS_P1;SDS_P2;PMS_P1;PMS_P2;Temp;Humidity;BMP_temperature;BMP_pressure;BME280_temperature;BME280_humidity;BME280_pressure;Samples;Min_cycle;Max_cycle;Signal;HPM_P1;HPM_P2
2021/02/23 00:01:21;;;;;;;4.78;4.16;;;;;;;18.85;45.76;101702.96;;;;-52
2021/02/23 00:04:21;;;;;;;5.21;4.37;;;;;;;18.83;45.76;101707.78;;;;-53
2021/02/23 00:07:21;;;;;;;4.29;3.89;;;;;;;18.81;45.78;101709.27;;;;-51
2021/02/23 00:10:21;;;;;;;5.15;4.27;;;;;;;18.79;45.77;101712.69;;;;-52
2021/02/23 00:13:21;;;;;;;4.45;4.05;;;;;;;18.77;45.81;101717.06;;;;-52
2021/02/23 00:16:21;;;;;;;5.06;4.13;;;;;;;18.75;45.80;101722.45;;;;-52
2021/02/23 00:19:21;;;;;;;4.53;3.89;;;;;;;18.73;45.82;101731.00;;;;-52
2021/02/23 00:22:21;;;;;;;4.09;3.69;;;;;;;18.71;45.81;101729.16;;;;-51
2021/02/23 00:25:21;;;;;;;4.75;4.26;;;;;;;18.69;45.81;101737.78;;;;-52
2021/02/23 00:28:21;;;;;;;5.59;3.95;;;;;;;18.68;45.78;101740.59;;;;-52
2021/02/23 00:31:21;;;;;;;4.31;3.90;;;;;;;18.65;45.84;101742.11;;;;-51
2021/02/23 00:34:21;;;;;;;4.40;3.99;;;;;;;18.63;45.84;101741.50;;;;-52
2021/02/23 00:37:21;;;;;;;4.72;4.18;;;;;;;18.62;45.85;101741.87;;;;-52
2021/02/23 00:40:21;;;;;;;4.61;3.88;;;;;;;18.60;45.86;101729.80;;;;-54
2021/02/23 00:43:21;;;;;;;4.41;4.01;;;;;;;18.58;45.82;101738.83;;;;-54
2021/02/23 00:46:21;;;;;;;4.25;3.85;;;;;;;18.56;45.85;101743.98;;;;-54
2021/02/23 00:49:21;;;;;;;4.33;3.93;;;;;;;18.54;45.82;101747.00;;;;-54
2021/02/23 00:52:21;;;;;;;4.73;3.85;;;;;;;18.53;45.85;101754.53;;;;-54
2021/02/23 00:55:21;;;;;;;4.45;4.05;;;;;;;18.51;45.90;101755.40;;;;-54
2021/02/23 00:58:21;;;;;;;4.25;3.85;;;;;;;18.50;45.88;101761.72;;;;-51
2021/02/23 01:01:21;;;;;;;4.17;3.77;;;;;;;18.48;45.88;101770.83;;;;-54
2021/02/23 01:04:21;;;;;;;4.17;3.77;;;;;;;18.46;45.87;101773.61;;;;-54
2021/02/23 01:07:21;;;;;;;4.58;3.95;;;;;;;18.45;45.89;101780.66;;;;-52
2021/02/23 01:10:21;;;;;;;4.35;3.95;;;;;;;18.44;45.90;101782.95;;;;-52
2021/02/23 01:13:21;;;;;;;4.36;3.90;;;;;;;18.42;45.88;101781.77;;;;-52
2021/02/23 01:16:21;;;;;;;4.36;3.83;;;;;;;18.41;45.92;101785.96;;;;-52
2021/02/23 01:19:21;;;;;;;4.15;3.75;;;;;;;18.39;45.91;101788.91;;;;-52
2021/02/23 01:22:21;;;;;;;4.59;3.74;;;;;;;18.38;45.94;101797.78;;;;-52
2021/02/23 01:25:21;;;;;;;4.12;3.71;;;;;;;18.37;45.93;101800.52;;;;-51
2021/02/23 01:28:21;;;;;;;4.35;3.75;;;;;;;18.34;45.96;101803.53;;;;-52
2021/02/23 01:31:21;;;;;;;4.29;3.89;;;;;;;18.33;45.99;101807.70;;;;-51
2021/02/23 01:34:21;;;;;;;4.39;3.99;;;;;;;18.32;45.97;101805.38;;;;-51
2021/02/23 01:37:21;;;;;;;4.13;3.73;;;;;;;18.30;45.99;101807.17;;;;-52
2021/02/23 01:40:21;;;;;;;4.25;3.80;;;;;;;18.29;46.01;101813.66;;;;-52
2021/02/23 01:43:21;;;;;;;4.15;3.75;;;;;;;18.28;45.93;101811.98;;;;-55
2021/02/23 01:46:21;;;;;;;4.16;3.76;;;;;;;18.27;45.99;101814.15;;;;-55
2021/02/23 01:49:21;;;;;;;4.17;3.77;;;;;;;18.25;46.02;101814.97;;;;-52
2021/02/23 01:52:21;;;;;;;4.27;3.87;;;;;;;18.23;46.02;101813.53;;;;-51
2021/02/23 01:55:21;;;;;;;4.09;3.69;;;;;;;18.22;46.03;101820.25;;;;-51
2021/02/23 01:58:21;;;;;;;4.43;3.95;;;;;;;18.21;46.01;101826.77;;;;-51
2021/02/23 02:01:21;;;;;;;3.93;3.59;;;;;;;18.20;45.98;101823.02;;;;-51
2021/02/23 02:04:21;;;;;;;4.19;3.79;;;;;;;18.19;46.06;101828.98;;;;-51
2021/02/23 02:07:21;;;;;;;4.15;3.75;;;;;;;18.16;46.09;101822.97;;;;-55
2021/02/23 02:10:21;;;;;;;4.31;3.89;;;;;;;18.16;46.04;101821.26;;;;-55
2021/02/23 02:13:21;;;;;;;4.45;4.05;;;;;;;18.15;46.08;101821.05;;;;-55
2021/02/23 02:16:21;;;;;;;4.24;3.84;;;;;;;18.14;46.06;101819.00;;;;-55
2021/02/23 02:19:21;;;;;;;4.15;3.75;;;;;;;18.12;46.08;101825.19;;;;-55
2021/02/23 02:22:21;;;;;;;4.19;3.79;;;;;;;18.12;46.07;101827.36;;;;-55
2021/02/23 02:25:21;;;;;;;4.23;3.83;;;;;;;18.10;46.08;101830.23;;;;-56
2021/02/23 02:28:22;;;;;;;5.09;3.77;;;;;;;18.10;46.08;101826.41;;;;-55
2021/02/23 02:31:21;;;;;;;4.02;3.62;;;;;;;18.09;46.05;101833.98;;;;-55
2021/02/23 02:34:21;;;;;;;4.22;3.68;;;;;;;18.07;46.14;101831.41;;;;-55
2021/02/23 02:37:21;;;;;;;4.18;3.78;;;;;;;18.06;46.07;101835.84;;;;-55
2021/02/23 02:40:21;;;;;;;3.92;3.51;;;;;;;18.05;46.10;101832.55;;;;-55
2021/02/23 02:43:21;;;;;;;4.05;3.65;;;;;;;18.03;46.12;101839.58;;;;-52
2021/02/23 02:46:21;;;;;;;3.84;3.54;;;;;;;18.02;46.09;101840.17;;;;-52
2021/02/23 02:49:21;;;;;;;4.52;4.12;;;;;;;18.01;46.08;101840.32;;;;-52
2021/02/23 02:52:21;;;;;;;4.61;3.80;;;;;;;18.00;46.11;101844.56;;;;-52
2021/02/23 02:55:21;;;;;;;4.24;3.84;;;;;;;17.99;46.12;101846.05;;;;-51
2021/02/23 02:58:21;;;;;;;4.05;3.66;;;;;;;17.98;46.14;101847.48;;;;-51
2021/02/23 03:01:21;;;;;;;3.93;3.57;;;;;;;17.97;46.11;101855.84;;;;-52
2021/02/23 03:04:21;;;;;;;4.07;3.68;;;;;;;17.95;46.09;101853.56;;;;-51
2021/02/23 03:07:21;;;;;;;3.93;3.59;;;;;;;17.95;46.15;101861.40;;;;-52
2021/02/23 03:10:21;;;;;;;4.22;3.83;;;;;;;17.94;46.19;101865.27;;;;-54
2021/02/23 03:13:25;;;;;;;3.87;3.54;;;;;;;17.93;46.11;101872.72;;;;-54
2021/02/23 03:16:21;;;;;;;3.84;3.49;;;;;;;17.92;46.21;101877.05;;;;-54
2021/02/23 03:19:21;;;;;;;4.25;3.80;;;;;;;17.91;46.17;101877.52;;;;-54
2021/02/23 03:22:21;;;;;;;4.03;3.63;;;;;;;17.90;46.17;101879.25;;;;-55
2021/02/23 03:25:21;;;;;;;4.49;3.89;;;;;;;17.89;46.20;101884.66;;;;-55
2021/02/23 03:28:21;;;;;;;3.85;3.47;;;;;;;17.89;46.08;101885.39;;;;-55
2021/02/23 03:31:21;;;;;;;4.12;3.67;;;;;;;17.88;46.16;101892.64;;;;-51
2021/02/23 03:34:21;;;;;;;3.90;3.55;;;;;;;17.87;46.19;101889.54;;;;-51
2021/02/23 03:37:21;;;;;;;4.41;3.66;;;;;;;17.86;46.20;101900.67;;;;-51
2021/02/23 03:40:21;;;;;;;3.80;3.43;;;;;;;17.85;46.20;101899.27;;;;-52
2021/02/23 03:43:21;;;;;;;3.77;3.47;;;;;;;17.84;46.17;101900.12;;;;-54
2021/02/23 03:46:21;;;;;;;4.03;3.67;;;;;;;17.83;46.19;101905.38;;;;-54
2021/02/23 03:49:21;;;;;;;3.96;3.66;;;;;;;17.83;46.18;101909.17;;;;-51
2021/02/23 03:52:21;;;;;;;4.03;3.63;;;;;;;17.81;46.21;101917.75;;;;-51
2021/02/23 03:55:21;;;;;;;3.91;3.60;;;;;;;17.81;46.20;101921.07;;;;-51
2021/02/23 03:58:21;;;;;;;3.61;3.31;;;;;;;17.80;46.21;101922.08;;;;-52
2021/02/23 04:01:21;;;;;;;3.70;3.40;;;;;;;17.78;46.23;101928.33;;;;-52
2021/02/23 04:04:21;;;;;;;3.98;3.64;;;;;;;17.79;46.22;101928.37;;;;-52
2021/02/23 04:07:21;;;;;;;3.77;3.47;;;;;;;17.77;46.21;101934.87;;;;-52
2021/02/23 04:10:21;;;;;;;4.15;3.74;;;;;;;17.76;46.21;101932.70;;;;-51
2021/02/23 04:13:21;;;;;;;4.04;3.70;;;;;;;17.76;46.20;101938.55;;;;-51
2021/02/23 04:16:21;;;;;;;3.91;3.59;;;;;;;17.75;46.16;101935.20;;;;-52
2021/02/23 04:19:21;;;;;;;3.79;3.46;;;;;;;17.74;46.20;101931.82;;;;-52
2021/02/23 04:22:21;;;;;;;3.69;3.39;;;;;;;17.73;46.17;101928.63;;;;-51
2021/02/23 04:25:21;;;;;;;4.01;3.54;;;;;;;17.72;46.19;101932.44;;;;-54
2021/02/23 04:28:21;;;;;;;3.88;3.51;;;;;;;17.71;46.19;101932.37;;;;-54
2021/02/23 04:31:21;;;;;;;4.22;3.82;;;;;;;17.71;46.21;101937.63;;;;-54
2021/02/23 04:34:21;;;;;;;4.09;3.69;;;;;;;17.70;46.19;101939.25;;;;-54
2021/02/23 04:37:21;;;;;;;3.83;3.45;;;;;;;17.70;46.21;101941.31;;;;-54
2021/02/23 04:40:21;;;;;;;4.10;3.70;;;;;;;17.68;46.21;101945.09;;;;-54
2021/02/23 04:43:21;;;;;;;4.21;3.79;;;;;;;17.66;46.21;101938.45;;;;-54
2021/02/23 04:46:21;;;;;;;4.07;3.70;;;;;;;17.66;46.27;101946.23;;;;-54
2021/02/23 04:49:21;;;;;;;3.78;3.48;;;;;;;17.65;46.20;101947.88;;;;-55
2021/02/23 04:52:21;;;;;;;3.63;3.33;;;;;;;17.65;46.22;101954.60;;;;-55
2021/02/23 04:55:21;;;;;;;3.80;3.50;;;;;;;17.64;46.24;101952.72;;;;-52
2021/02/23 04:58:21;;;;;;;4.18;3.78;;;;;;;17.64;46.22;101961.92;;;;-52
2021/02/23 05:01:21;;;;;;;3.69;3.39;;;;;;;17.63;46.28;101974.07;;;;-55
2021/02/23 05:04:21;;;;;;;3.79;3.41;;;;;;;17.62;46.22;101973.47;;;;-55
2021/02/23 05:07:21;;;;;;;3.90;3.60;;;;;;;17.61;46.26;101970.51;;;;-54
2021/02/23 05:10:21;;;;;;;3.62;3.32;;;;;;;17.61;46.20;101968.30;;;;-53
2021/02/23 05:13:21;;;;;;;3.79;3.49;;;;;;;17.60;46.29;101967.80;;;;-52
2021/02/23 05:16:21;;;;;;;3.85;3.54;;;;;;;17.59;46.25;101977.16;;;;-52
2021/02/23 05:19:21;;;;;;;3.65;3.35;;;;;;;17.59;46.23;101975.93;;;;-53
2021/02/23 05:22:21;;;;;;;3.93;3.57;;;;;;;17.58;46.27;101975.09;;;;-52
2021/02/23 05:25:21;;;;;;;3.77;3.47;;;;;;;17.56;46.23;101975.36;;;;-51
2021/02/23 05:28:21;;;;;;;3.89;3.49;;;;;;;17.57;46.26;101982.50;;;;-52
2021/02/23 05:31:21;;;;;;;3.66;3.36;;;;;;;17.56;46.21;101992.94;;;;-51
2021/02/23 05:34:21;;;;;;;3.61;3.31;;;;;;;17.55;46.28;101993.53;;;;-51
2021/02/23 05:37:21;;;;;;;4.11;3.71;;;;;;;17.54;46.28;101988.56;;;;-54
2021/02/23 05:40:21;;;;;;;3.69;3.39;;;;;;;17.54;46.25;101996.17;;;;-54
2021/02/23 05:43:21;;;;;;;4.05;3.66;;;;;;;17.53;46.26;101997.91;;;;-54
2021/02/23 05:46:21;;;;;;;3.89;3.59;;;;;;;17.52;46.32;101996.19;;;;-51
2021/02/23 05:49:21;;;;;;;3.98;3.59;;;;;;;17.51;46.34;101999.61;;;;-51
2021/02/23 05:52:21;;;;;;;3.59;3.29;;;;;;;17.51;46.30;102010.97;;;;-51
2021/02/23 05:55:21;;;;;;;3.82;3.48;;;;;;;17.50;46.30;102014.83;;;;-51
2021/02/23 05:58:21;;;;;;;3.73;3.43;;;;;;;17.49;46.27;102015.38;;;;-52
2021/02/23 06:01:21;;;;;;;4.74;3.51;;;;;;;17.49;46.28;102010.48;;;;-52
2021/02/23 06:04:21;;;;;;;3.75;3.45;;;;;;;17.48;46.27;102015.81;;;;-52
2021/02/23 06:07:21;;;;;;;3.57;3.27;;;;;;;17.47;46.29;102012.22;;;;-51
2021/02/23 06:10:21;;;;;;;3.74;3.35;;;;;;;17.47;46.33;102019.31;;;;-52
2021/02/23 06:13:21;;;;;;;3.61;3.31;;;;;;;17.47;46.30;102020.33;;;;-51
2021/02/23 06:16:21;;;;;;;3.65;3.35;;;;;;;17.46;46.27;102024.08;;;;-53
2021/02/23 06:19:21;;;;;;;4.01;3.61;;;;;;;17.46;46.28;102030.89;;;;-53
2021/02/23 06:22:21;;;;;;;3.57;3.27;;;;;;;17.47;46.36;102033.06;;;;-52
2021/02/23 06:25:21;;;;;;;3.54;3.24;;;;;;;17.48;46.33;102028.86;;;;-51
2021/02/23 06:28:21;;;;;;;3.89;3.57;;;;;;;17.49;46.27;102031.15;;;;-51
2021/02/23 06:31:21;;;;;;;3.65;3.35;;;;;;;17.51;46.25;102031.30;;;;-51
2021/02/23 06:34:21;;;;;;;3.71;3.41;;;;;;;17.53;46.28;102036.02;;;;-52
2021/02/23 06:37:21;;;;;;;3.32;3.02;;;;;;;17.55;46.27;102034.31;;;;-51
2021/02/23 06:40:21;;;;;;;3.61;3.31;;;;;;;17.58;46.19;102030.00;;;;-51
2021/02/23 06:43:21;;;;;;;3.39;3.09;;;;;;;17.63;46.25;102031.30;;;;-53
2021/02/23 06:46:21;;;;;;;3.51;3.21;;;;;;;17.66;46.15;102032.41;;;;-51
2021/02/23 06:49:21;;;;;;;3.45;3.15;;;;;;;17.72;46.34;102030.02;;;;-52
2021/02/23 06:52:21;;;;;;;3.55;3.25;;;;;;;17.75;46.11;102039.47;;;;-52
2021/02/23 06:55:21;;;;;;;3.67;3.35;;;;;;;17.79;46.21;102046.53;;;;-51
2021/02/23 06:58:21;;;;;;;3.67;3.37;;;;;;;17.82;46.29;102039.17;;;;-51
2021/02/23 07:01:21;;;;;;;3.53;3.23;;;;;;;17.85;46.29;102036.83;;;;-51
2021/02/23 07:04:21;;;;;;;3.47;3.17;;;;;;;17.88;46.28;102039.42;;;;-51
2021/02/23 07:07:21;;;;;;;3.48;3.18;;;;;;;17.90;46.27;102040.97;;;;-51
2021/02/23 07:10:21;;;;;;;3.53;3.23;;;;;;;17.93;46.39;102048.08;;;;-51
2021/02/23 07:13:21;;;;;;;3.39;3.09;;;;;;;17.94;46.35;102051.09;;;;-55
2021/02/23 07:16:21;;;;;;;3.57;3.27;;;;;;;17.95;46.30;102048.81;;;;-54
2021/02/23 07:19:21;;;;;;;3.33;3.03;;;;;;;17.96;46.22;102054.75;;;;-54
2021/02/23 07:22:21;;;;;;;3.48;3.18;;;;;;;17.97;46.26;102060.48;;;;-54
2021/02/23 07:25:21;;;;;;;3.43;3.13;;;;;;;17.99;46.29;102066.84;;;;-54
2021/02/23 07:28:21;;;;;;;3.15;2.89;;;;;;;18.00;46.23;102073.24;;;;-55
2021/02/23 07:31:21;;;;;;;3.41;3.11;;;;;;;18.01;46.25;102076.98;;;;-55
2021/02/23 07:34:21;;;;;;;3.23;2.93;;;;;;;18.01;46.26;102074.47;;;;-55
2021/02/23 07:37:21;;;;;;;3.08;2.87;;;;;;;18.00;46.25;102083.14;;;;-55
2021/02/23 07:40:21;;;;;;;3.47;3.17;;;;;;;18.02;46.24;102094.16;;;;-56
2021/02/23 07:43:21;;;;;;;3.37;3.07;;;;;;;18.01;46.25;102101.56;;;;-55
2021/02/23 07:46:21;;;;;;;3.32;3.02;;;;;;;18.01;46.21;102101.97;;;;-56
2021/02/23 07:49:21;;;;;;;3.19;2.91;;;;;;;18.01;46.18;102104.89;;;;-55
2021/02/23 07:52:21;;;;;;;3.13;2.85;;;;;;;18.01;46.13;102103.99;;;;-55
2021/02/23 07:55:21;;;;;;;3.13;2.83;;;;;;;18.00;46.18;102108.77;;;;-55
2021/02/23 07:58:21;;;;;;;3.33;3.03;;;;;;;18.00;46.19;102117.77;;;;-55
2021/02/23 08:01:21;;;;;;;3.11;2.81;;;;;;;17.99;46.15;102126.92;;;;-55
2021/02/23 08:04:21;;;;;;;3.20;2.93;;;;;;;17.99;46.06;102137.84;;;;-55
2021/02/23 08:07:21;;;;;;;3.18;2.89;;;;;;;17.99;46.06;102140.88;;;;-55
2021/02/23 08:10:21;;;;;;;3.21;2.91;;;;;;;17.98;46.04;102142.59;;;;-54
2021/02/23 08:13:21;;;;;;;3.19;2.89;;;;;;;17.97;46.10;102143.43;;;;-55
2021/02/23 08:16:21;;;;;;;3.19;2.89;;;;;;;17.97;46.10;102144.25;;;;-55
2021/02/23 08:19:21;;;;;;;3.17;2.88;;;;;;;17.95;46.23;102156.94;;;;-57
2021/02/23 08:22:21;;;;;;;7.43;5.16;;;;;;;17.87;46.20;102169.59;;;;-57
2021/02/23 08:25:21;;;;;;;7.95;5.23;;;;;;;17.90;46.29;102181.53;;;;-64
2021/02/23 08:28:21;;;;;;;5.05;4.55;;;;;;;17.92;46.38;102180.30;;;;-53
2021/02/23 08:31:21;;;;;;;4.71;4.17;;;;;;;17.94;46.51;102180.56;;;;-51
2021/02/23 08:34:21;;;;;;;6.35;4.10;;;;;;;17.96;46.57;102184.45;;;;-50
2021/02/23 08:37:21;;;;;;;4.62;3.99;;;;;;;17.98;46.91;102182.92;;;;-54
2021/02/23 08:40:21;;;;;;;6.34;4.06;;;;;;;18.00;47.25;102180.23;;;;-53
2021/02/23 08:43:21;;;;;;;7.39;4.23;;;;;;;18.02;47.78;102180.23;;;;-52
2021/02/23 08:46:21;;;;;;;6.23;4.07;;;;;;;18.04;47.71;102182.44;;;;-51
2021/02/23 08:49:21;;;;;;;4.72;4.11;;;;;;;18.07;47.92;102178.20;;;;-51
2021/02/23 08:52:21;;;;;;;4.58;4.15;;;;;;;18.10;47.68;102183.73;;;;-51
2021/02/23 08:55:21;;;;;;;5.41;4.13;;;;;;;18.17;47.76;102181.63;;;;-51
2021/02/23 08:58:21;;;;;;;6.67;3.85;;;;;;;18.21;47.48;102190.06;;;;-51
2021/02/23 09:01:21;;;;;;;4.95;4.15;;;;;;;18.24;47.63;102200.63;;;;-52
2021/02/23 09:04:21;;;;;;;4.57;4.13;;;;;;;18.26;47.33;102199.38;;;;-55
2021/02/23 09:07:21;;;;;;;5.47;4.27;;;;;;;18.28;47.74;102195.73;;;;-51
2021/02/23 09:10:21;;;;;;;4.83;4.17;;;;;;;18.32;47.96;102191.30;;;;-48
2021/02/23 09:13:21;;;;;;;4.74;4.02;;;;;;;18.35;47.93;102194.27;;;;-49
2021/02/23 09:16:21;;;;;;;5.95;4.04;;;;;;;18.40;47.61;102193.81;;;;-50
2021/02/23 09:19:21;;;;;;;5.11;4.15;;;;;;;18.46;47.67;102190.63;;;;-52
2021/02/23 09:22:21;;;;;;;4.82;4.09;;;;;;;18.52;47.84;102200.20;;;;-51
2021/02/23 09:25:21;;;;;;;4.32;3.75;;;;;;;18.57;47.85;102197.93;;;;-51
2021/02/23 09:28:21;;;;;;;4.31;3.81;;;;;;;18.63;47.84;102194.75;;;;-51
2021/02/23 09:31:21;;;;;;;5.47;3.93;;;;;;;18.69;47.80;102197.51;;;;-49
2021/02/23 09:34:21;;;;;;;4.15;3.73;;;;;;;18.73;47.57;102194.73;;;;-52
2021/02/23 09:37:21;;;;;;;4.33;3.73;;;;;;;18.79;47.74;102197.84;;;;-52
2021/02/23 09:40:21;;;;;;;4.40;3.89;;;;;;;18.83;47.63;102196.36;;;;-57
2021/02/23 09:43:21;;;;;;;6.17;4.01;;;;;;;18.85;47.30;102194.81;;;;-51
2021/02/23 09:46:21;;;;;;;6.09;4.23;;;;;;;18.88;47.22;102192.87;;;;-47
2021/02/23 09:49:21;;;;;;;4.37;3.89;;;;;;;18.91;47.02;102193.64;;;;-47
2021/02/23 09:52:21;;;;;;;4.43;3.57;;;;;;;18.96;47.41;102194.46;;;;-52
2021/02/23 09:55:21;;;;;;;5.01;3.57;;;;;;;19.03;46.94;102204.77;;;;-48
2021/02/23 09:58:21;;;;;;;4.33;3.63;;;;;;;19.07;47.52;102209.11;;;;-52
2021/02/23 10:01:21;;;;;;;5.04;3.72;;;;;;;19.10;47.29;102204.95;;;;-51
2021/02/23 10:04:21;;;;;;;6.23;3.77;;;;;;;19.12;47.19;102200.08;;;;-51
2021/02/23 10:07:21;;;;;;;3.81;3.46;;;;;;;19.15;47.47;102199.45;;;;-49
2021/02/23 10:10:21;;;;;;;4.56;3.53;;;;;;;19.20;47.27;102199.81;;;;-52
2021/02/23 10:13:21;;;;;;;4.19;3.57;;;;;;;19.24;47.43;102203.44;;;;-58
2021/02/23 10:16:21;;;;;;;4.80;4.07;;;;;;;19.22;47.05;102204.42;;;;-55
2021/02/23 10:19:21;;;;;;;4.10;3.70;;;;;;;19.21;46.97;102203.07;;;;-52
2021/02/23 10:22:21;;;;;;;4.24;3.81;;;;;;;19.24;47.25;102200.93;;;;-48
2021/02/23 10:25:21;;;;;;;4.39;3.51;;;;;;;19.27;47.31;102200.44;;;;-51
2021/02/23 10:28:22;;;;;;;5.06;3.66;;;;;;;19.30;47.27;102200.69;;;;-51
2021/02/23 10:31:21;;;;;;;4.09;3.63;;;;;;;19.32;47.38;102202.76;;;;-48
2021/02/23 10:34:22;;;;;;;5.39;3.43;;;;;;;19.33;47.20;102200.66;;;;-50
2021/02/23 10:37:21;;;;;;;4.41;3.59;;;;;;;19.33;46.73;102206.43;;;;-52
2021/02/23 10:40:21;;;;;;;4.71;3.55;;;;;;;19.30;46.47;102207.48;;;;-52
2021/02/23 10:43:21;;;;;;;4.35;3.41;;;;;;;19.30;46.65;102207.20;;;;-51
2021/02/23 10:46:22;;;;;;;5.89;3.83;;;;;;;19.27;46.74;102202.32;;;;-49
2021/02/23 10:49:21;;;;;;;5.26;4.11;;;;;;;19.26;46.91;102200.67;;;;-51
2021/02/23 10:52:21;;;;;;;4.63;3.92;;;;;;;19.28;46.76;102198.39;;;;-48
2021/02/23 10:55:21;;;;;;;6.68;3.86;;;;;;;19.26;46.34;102194.01;;;;-48
2021/02/23 10:58:21;;;;;;;5.11;3.67;;;;;;;19.27;46.25;102193.62;;;;-48
2021/02/23 11:01:21;;;;;;;5.59;3.69;;;;;;;19.26;46.10;102193.39;;;;-49
2021/02/23 11:04:22;;;;;;;4.28;3.57;;;;;;;19.25;46.07;102186.48;;;;-47
2021/02/23 11:07:21;;;;;;;5.83;3.69;;;;;;;19.28;46.28;102183.27;;;;-47
2021/02/23 11:10:21;;;;;;;5.87;3.55;;;;;;;19.27;46.08;102183.37;;;;-47
2021/02/23 11:13:21;;;;;;;10.55;3.81;;;;;;;19.26;45.96;102182.47;;;;-47
2021/02/23 11:16:21;;;;;;;5.70;3.44;;;;;;;19.26;45.95;102180.88;;;;-47
2021/02/23 11:19:21;;;;;;;4.06;3.61;;;;;;;19.26;46.00;102181.80;;;;-47
2021/02/23 11:22:21;;;;;;;5.05;3.59;;;;;;;19.25;45.95;102175.42;;;;-47
2021/02/23 11:25:21;;;;;;;5.05;3.49;;;;;;;19.25;45.92;102168.11;;;;-47
2021/02/23 11:28:21;;;;;;;3.98;3.39;;;;;;;19.25;45.96;102163.22;;;;-45
2021/02/23 11:31:21;;;;;;;7.87;4.34;;;;;;;19.22;45.93;102158.91;;;;-47
2021/02/23 11:34:21;;;;;;;6.30;4.35;;;;;;;19.21;46.08;102157.79;;;;-47
2021/02/23 11:37:21;;;;;;;4.99;4.35;;;;;;;19.21;46.28;102156.98;;;;-50
2021/02/23 11:40:22;;;;;;;6.76;4.41;;;;;;;19.21;46.39;102153.08;;;;-51
2021/02/23 11:43:21;;;;;;;6.37;4.43;;;;;;;19.19;46.53;102150.81;;;;-48
2021/02/23 11:46:21;;;;;;;6.07;4.45;;;;;;;19.19;46.61;102147.16;;;;-53
2021/02/23 11:49:21;;;;;;;6.98;4.31;;;;;;;19.20;46.49;102139.17;;;;-53
2021/02/23 11:52:21;;;;;;;5.11;4.17;;;;;;;19.22;46.22;102139.72;;;;-53
2021/02/23 11:55:21;;;;;;;4.39;3.67;;;;;;;19.23;46.10;102136.00;;;;-53
2021/02/23 11:58:21;;;;;;;5.55;3.85;;;;;;;19.24;46.03;102129.71;;;;-53
2021/02/23 12:01:21;;;;;;;5.37;4.08;;;;;;;19.26;46.02;102124.10;;;;-53
2021/02/23 12:04:21;;;;;;;5.41;3.69;;;;;;;19.26;45.94;102124.91;;;;-53
2021/02/23 12:07:21;;;;;;;4.81;3.87;;;;;;;19.27;45.87;102129.23;;;;-53
2021/02/23 12:10:21;;;;;;;4.70;3.73;;;;;;;19.29;45.81;102130.77;;;;-53
2021/02/23 12:13:21;;;;;;;4.84;3.73;;;;;;;19.30;45.95;102124.55;;;;-54
2021/02/23 12:16:21;;;;;;;5.16;3.61;;;;;;;19.31;45.83;102124.41;;;;-53
2021/02/23 12:19:21;;;;;;;5.03;3.68;;;;;;;19.32;45.86;102121.95;;;;-56
2021/02/23 12:22:21;;;;;;;5.45;3.66;;;;;;;19.32;45.80;102116.42;;;;-52
2021/02/23 12:25:21;;;;;;;6.65;4.08;;;;;;;19.33;45.68;102114.16;;;;-51
2021/02/23 12:28:21;;;;;;;5.38;3.81;;;;;;;19.35;45.75;102109.58;;;;-51
2021/02/23 12:31:21;;;;;;;4.79;3.63;;;;;;;19.34;45.66;102111.04;;;;-52
2021/02/23 12:34:21;;;;;;;4.81;3.69;;;;;;;19.33;45.65;102109.13;;;;-55
2021/02/23 12:37:21;;;;;;;4.06;3.45;;;;;;;19.35;45.68;102109.09;;;;-55
2021/02/23 12:40:21;;;;;;;4.31;3.85;;;;;;;19.35;45.70;102105.84;;;;-56
2021/02/23 12:43:21;;;;;;;4.19;3.57;;;;;;;19.34;45.70;102103.48;;;;-55
2021/02/23 12:46:21;;;;;;;4.05;3.47;;;;;;;19.35;45.70;102105.12;;;;-53
2021/02/23 12:49:21;;;;;;;4.40;3.45;;;;;;;19.34;45.70;102098.16;;;;-53
2021/02/23 12:52:22;;;;;;;5.34;3.45;;;;;;;19.35;45.75;102095.69;;;;-51
2021/02/23 12:55:21;;;;;;;4.77;3.39;;;;;;;19.35;45.65;102094.30;;;;-52
2021/02/23 12:58:21;;;;;;;4.46;3.48;;;;;;;19.35;45.62;102095.11;;;;-55
2021/02/23 13:01:21;;;;;;;4.63;3.50;;;;;;;19.35;45.61;102093.57;;;;-55
2021/02/23 13:04:21;;;;;;;4.21;3.36;;;;;;;19.35;45.64;102089.11;;;;-53
2021/02/23 13:07:21;;;;;;;4.11;3.41;;;;;;;19.34;45.60;102084.53;;;;-53
2021/02/23 13:10:21;;;;;;;4.18;3.40;;;;;;;19.34;45.65;102083.39;;;;-51
2021/02/23 13:13:21;;;;;;;4.49;3.37;;;;;;;19.35;45.88;102078.85;;;;-53
2021/02/23 13:16:21;;;;;;;6.16;3.87;;;;;;;19.37;46.24;102074.45;;;;-50
2021/02/23 13:19:21;;;;;;;5.99;3.59;;;;;;;19.36;46.62;102070.55;;;;-52
2021/02/23 13:22:21;;;;;;;4.59;3.44;;;;;;;19.40;46.75;102072.70;;;;-55
2021/02/23 13:25:21;;;;;;;8.18;3.54;;;;;;;19.41;46.77;102069.53;;;;-53
2021/02/23 13:28:21;;;;;;;6.50;3.57;;;;;;;19.41;47.03;102062.06;;;;-52
2021/02/23 13:31:21;;;;;;;4.50;3.45;;;;;;;19.43;46.57;102061.31;;;;-54
2021/02/23 13:34:20;;;;;;;7.29;3.99;;;;;;;19.39;46.83;102055.09;;;;-59
2021/02/23 13:37:21;;;;;;;8.27;4.45;;;;;;;19.39;47.22;102055.34;;;;-54
2021/02/23 13:40:21;;;;;;;9.72;4.40;;;;;;;19.41;46.91;102051.00;;;;-48
2021/02/23 13:43:20;;;;;;;6.76;3.97;;;;;;;19.42;46.97;102055.41;;;;-47
2021/02/23 13:46:21;;;;;;;6.79;3.94;;;;;;;19.45;47.08;102052.52;;;;-50
2021/02/23 13:49:21;;;;;;;8.28;4.36;;;;;;;19.44;47.02;102047.59;;;;-48
2021/02/23 13:52:20;;;;;;;9.37;4.44;;;;;;;19.45;46.86;102048.53;;;;-48
2021/02/23 13:55:21;;;;;;;7.02;4.29;;;;;;;19.45;47.19;102046.02;;;;-50
2021/02/23 13:58:21;;;;;;;8.13;4.00;;;;;;;19.47;47.18;102046.81;;;;-52
2021/02/23 14:01:20;;;;;;;11.29;4.24;;;;;;;19.49;47.00;102046.55;;;;-51
2021/02/23 14:04:21;;;;;;;5.55;3.71;;;;;;;19.50;46.97;102049.73;;;;-51
2021/02/23 14:07:21;;;;;;;6.43;3.97;;;;;;;19.49;46.85;102050.05;;;;-52
2021/02/23 14:10:21;;;;;;;8.97;4.15;;;;;;;19.50;47.05;102044.95;;;;-53
2021/02/23 14:13:21;;;;;;;7.72;4.01;;;;;;;19.50;47.26;102044.29;;;;-51
2021/02/23 14:16:21;;;;;;;7.42;4.15;;;;;;;19.48;47.38;102041.71;;;;-47
2021/02/23 14:19:21;;;;;;;7.25;4.00;;;;;;;19.49;47.18;102036.79;;;;-54
2021/02/23 14:22:21;;;;;;;7.41;4.00;;;;;;;19.54;47.58;102034.08;;;;-51
2021/02/23 14:25:21;;;;;;;5.77;3.87;;;;;;;19.55;47.44;102036.05;;;;-53
2021/02/23 14:28:21;;;;;;;6.76;4.05;;;;;;;19.54;46.99;102035.16;;;;-53
2021/02/23 14:31:21;;;;;;;6.17;3.88;;;;;;;19.53;46.67;102034.97;;;;-55
2021/02/23 14:34:20;;;;;;;7.75;4.03;;;;;;;19.53;46.67;102043.42;;;;-53
2021/02/23 14:37:21;;;;;;;6.24;3.79;;;;;;;19.52;46.50;102039.97;;;;-52
2021/02/23 14:40:21;;;;;;;6.11;3.79;;;;;;;19.51;46.42;102038.04;;;;-54
2021/02/23 14:43:21;;;;;;;6.77;3.80;;;;;;;19.50;46.38;102035.50;;;;-53
2021/02/23 14:46:21;;;;;;;7.09;4.13;;;;;;;19.50;46.33;102035.27;;;;-53
2021/02/23 14:49:21;;;;;;;7.65;3.79;;;;;;;19.48;46.26;102031.88;;;;-53
2021/02/23 14:52:20;;;;;;;5.57;3.79;;;;;;;19.48;46.25;102034.55;;;;-54
2021/02/23 14:55:21;;;;;;;5.29;3.61;;;;;;;19.48;46.17;102032.67;;;;-55
2021/02/23 14:58:21;;;;;;;5.99;3.52;;;;;;;19.46;46.17;102028.02;;;;-55
2021/02/23 15:01:20;;;;;;;7.58;3.67;;;;;;;19.46;46.13;102021.15;;;;-53
2021/02/23 15:04:21;;;;;;;4.67;3.56;;;;;;;19.46;46.07;102017.25;;;;-54
2021/02/23 15:07:21;;;;;;;5.04;3.50;;;;;;;19.45;46.06;102021.55;;;;-55
2021/02/23 15:10:21;;;;;;;5.29;3.45;;;;;;;19.45;46.05;102019.27;;;;-54
2021/02/23 15:13:21;;;;;;;4.94;3.45;;;;;;;19.45;46.08;102021.62;;;;-55
2021/02/23 15:16:21;;;;;;;6.30;3.49;;;;;;;19.43;46.02;102019.45;;;;-55
2021/02/23 15:19:20;;;;;;;4.93;3.37;;;;;;;19.43;46.02;102022.05;;;;-55
2021/02/23 15:22:21;;;;;;;5.17;3.38;;;;;;;19.44;46.13;102023.77;;;;-48
2021/02/23 15:25:22;;;;;;;6.58;3.58;;;;;;;19.47;46.84;102021.59;;;;-48
2021/02/23 15:28:21;;;;;;;4.84;3.36;;;;;;;19.48;47.23;102025.94;;;;-51
2021/02/23 15:31:21;;;;;;;5.97;3.58;;;;;;;19.50;46.99;102023.16;;;;-52
2021/02/23 15:34:20;;;;;;;6.02;3.34;;;;;;;19.49;46.62;102018.66;;;;-51
2021/02/23 15:37:21;;;;;;;5.14;3.58;;;;;;;19.48;46.47;102019.44;;;;-52
2021/02/23 15:40:21;;;;;;;4.93;3.39;;;;;;;19.47;46.44;102015.84;;;;-51
2021/02/23 15:43:20;;;;;;;5.08;3.13;;;;;;;19.46;46.33;102016.27;;;;-57
2021/02/23 15:46:20;;;;;;;6.74;3.65;;;;;;;19.47;46.94;102015.02;;;;-55
2021/02/23 15:49:21;;;;;;;4.69;3.17;;;;;;;19.48;47.26;102008.45;;;;-52
2021/02/23 15:52:20;;;;;;;4.56;3.29;;;;;;;19.51;47.69;102010.02;;;;-51
2021/02/23 15:55:21;;;;;;;5.33;3.05;;;;;;;19.52;47.56;102009.23;;;;-57
2021/02/23 15:58:21;;;;;;;4.48;3.25;;;;;;;19.54;47.59;102011.56;;;;-54
2021/02/23 16:01:20;;;;;;;6.62;3.47;;;;;;;19.55;47.59;102010.64;;;;-54
2021/02/23 16:04:21;;;;;;;4.39;3.10;;;;;;;19.57;47.87;102007.61;;;;-54
2021/02/23 16:07:21;;;;;;;4.70;3.19;;;;;;;19.59;47.23;102005.06;;;;-55
2021/02/23 16:10:20;;;;;;;6.19;2.91;;;;;;;19.58;46.93;102002.34;;;;-52
2021/02/23 16:13:21;;;;;;;4.45;3.24;;;;;;;19.56;46.86;102004.48;;;;-55
2021/02/23 16:16:21;;;;;;;9.85;3.26;;;;;;;19.52;47.36;102006.13;;;;-52
2021/02/23 16:19:20;;;;;;;8.73;3.27;;;;;;;19.49;47.79;102009.23;;;;-51
2021/02/23 16:22:21;;;;;;;7.54;3.31;;;;;;;19.53;47.67;102011.55;;;;-53
2021/02/23 16:25:21;;;;;;;5.22;3.23;;;;;;;19.59;48.02;102006.62;;;;-50
2021/02/23 16:28:22;;;;;;;5.49;3.15;;;;;;;19.63;47.98;102006.13;;;;-56
2021/02/23 16:31:21;;;;;;;5.43;3.17;;;;;;;19.67;47.99;102005.04;;;;-52
2021/02/23 16:34:21;;;;;;;6.37;2.93;;;;;;;19.69;47.45;102009.25;;;;-50
2021/02/23 16:37:21;;;;;;;9.93;3.20;;;;;;;19.72;47.85;102010.69;;;;-49
2021/02/23 16:40:20;;;;;;;5.47;3.01;;;;;;;19.73;47.85;102010.95;;;;-51
2021/02/23 16:43:21;;;;;;;6.14;3.03;;;;;;;19.74;47.51;102017.50;;;;-61